Sunday, October 21, 2018, 1:47 PM EDT
Back to Local

KMTN, Baltimore / Martin

Location: Middle River, MD, United States Lat: 39.333
Local Time: 1:47 PM EDT (17:47 GMT) Lon: -76.417
Time Zone: US/Eastern Elev: 22 ft

Show me the last for .
Show Decoded

2018-10-21 12:45 METAR KMTN 211645Z 31018G25KT 10SM BKN046 10/02 A3012 =
2018-10-21 11:45 METAR KMTN 211545Z 30018G23KT 10SM BKN044 BKN050 09/02 A3011 =
2018-10-21 10:45 METAR KMTN 211445Z 31015G26KT 10SM BKN043 BKN050 09/02 A3009 =
2018-10-21 09:45 METAR KMTN 211345Z 32015G21KT 10SM BKN040 BKN047 09/02 A3007 =
2018-10-21 08:45 METAR KMTN 211245Z 29016G25KT 10SM FEW030 08/02 A3005 =
2018-10-21 07:45 METAR KMTN 211145Z 31016G23KT 10SM SCT029 07/03 A2999 =
2018-10-21 06:45 METAR KMTN 211045Z 31024G33KT 10SM OVC027 08/04 A2992 =
2018-10-21 05:45 METAR KMTN 210945Z 28014G21KT 10SM SCT033 BKN050 09/04 A2984 =
2018-10-21 05:30 METAR KMTN 210930Z AUTO 27015G20KT 10SM -DZ SCT033 SCT055 BKN090 09/03 A2984 RMK
                 AO2 =
2018-10-21 05:21 METAR KMTN 210921Z AUTO 26016G19KT 10SM RA SCT035 SCT055 BKN075 09/03 A2983 RMK
                 AO2 =
2018-10-21 05:00 METAR KMTN 210900Z AUTO 26013G21KT 10SM SCT080 09/03 A2982 RMK AO2 =
2018-10-21 04:42 METAR KMTN 210842Z AUTO 26012G20KT 10SM CLR 10/03 A2981 RMK AO2 =
2018-10-21 04:21 METAR KMTN 210821Z AUTO 26015G20KT 10SM SCT065 10/03 A2980 RMK AO2 =
2018-10-21 04:00 METAR KMTN 210800Z AUTO 26015G19KT 10SM BKN055 10/03 A2979 RMK AO2 =
2018-10-21 03:42 METAR KMTN 210742Z AUTO 26016KT 10SM SCT055 10/03 A2978 RMK AO2 =
2018-10-21 03:21 METAR KMTN 210721Z AUTO 26016G22KT 10SM CLR 10/03 A2978 RMK AO2 =
2018-10-21 03:00 METAR KMTN 210700Z AUTO 27017G26KT 10SM SCT120 11/03 A2976 RMK AO2 =
2018-10-21 02:42 METAR KMTN 210642Z AUTO 27017G26KT 10SM BKN110 11/03 A2975 RMK AO2 =
2018-10-21 02:21 METAR KMTN 210621Z AUTO 25006KT 10SM OVC110 11/05 A2975 RMK AO2 =
2018-10-21 02:00 METAR KMTN 210600Z AUTO 26006KT 10SM SCT090 OVC120 11/05 A2974 RMK AO2 =
2018-10-21 01:42 METAR KMTN 210542Z AUTO 24008KT 10SM BKN090 OVC110 11/05 A2974 RMK AO2 =
2018-10-21 01:21 METAR KMTN 210521Z AUTO 25008KT 10SM SCT050 BKN080 BKN100 11/06 A2975 RMK AO2 =
2018-10-21 01:00 METAR KMTN 210500Z AUTO 25010G14KT 10SM SCT050 SCT060 SCT090 11/07 A2976 RMK AO2
                 =
2018-10-21 00:42 METAR KMTN 210442Z AUTO 26009KT 10SM SCT085 BKN100 11/07 A2976 RMK AO2 =
2018-10-21 00:21 METAR KMTN 210421Z AUTO 26005KT 10SM OVC100 11/07 A2975 RMK AO2 =
2018-10-21 00:00 METAR KMTN 210400Z AUTO 26006KT 10SM OVC100 12/07 A2975 RMK AO2 =
2018-10-20 23:42 METAR KMTN 210342Z AUTO 26006KT 10SM SCT070 SCT095 OVC110 12/06 A2974 RMK AO2 =
2018-10-20 23:21 METAR KMTN 210321Z AUTO 25006KT 10SM BKN070 OVC085 12/06 A2974 RMK AO2 LTG DSNT
                 E =
2018-10-20 23:00 METAR KMTN 210300Z AUTO 25008G22KT 10SM DZ BKN070 BKN080 OVC110 12/06 A2974 RMK
                 AO2 =
2018-10-20 22:42 METAR KMTN 210242Z AUTO 27016G23KT 10SM SCT070 OVC110 12/05 A2973 RMK AO2 =
2018-10-20 22:21 METAR KMTN 210221Z AUTO 28019G32KT 10SM OVC110 12/06 A2973 RMK AO2 =
2018-10-20 21:45 METAR KMTN 210145Z 27014G20KT 10SM SCT180 16/06 A2967 =
2018-10-20 20:45 METAR KMTN 210045Z 25004KT 10SM SCT085 14/08 A2967 =
2018-10-20 19:54 METAR KMTN 202354Z 25003KT 10SM BKN080 17/08 A2968 =
2018-10-20 18:45 METAR KMTN 202245Z 25004KT 10SM SCT090 17/08 A2967 =
2018-10-20 17:45 METAR KMTN 202145Z 27008KT 10SM FEW075 18/08 A2966 =
2018-10-20 16:45 METAR KMTN 202045Z 26008G14KT 10SM SCT075 19/08 A2967 =
2018-10-20 15:45 METAR KMTN 201945Z 27011KT 10SM SCT050 BKN075 19/09 A2969 =
2018-10-20 14:45 METAR KMTN 201845Z 27008KT 10SM SCT050 BKN060 BKN070 19/11 A2972 =
2018-10-20 13:54 METAR KMTN 201754Z 26007KT 10SM SCT050 BKN065 18/11 A2974 =

Support USWX by starting your Amazon purchase here.